EB1CAM-9
43.32.80N 005.52.04W
IN73BN aprs.fi
zuletzt gehoert:
2022-01-08T18:32:50Z
zuerst gehoert:
2021-03-19T17:40:16Z

APRS Corvera de Asturias [IN73BM], 0 Stunde(n), EB1CAM-9 [12:07:01, 0s].
EA1AHA 43.32.72N 005.54.38WIN73BN 3.198km 278°W11:01:51ZWind 180°/001kn, Böen bis 002kn, Temp 12.22c, Regen 0.0mm, letzte 24h 45.0mm, seit 0h 45.0mm, Baro 1028.8h, Hum: 66%(3EA1AHA-13)
ED1ZAY 43.29.47N 005.56.54WIN73AL 8.239km 228°SW11:00:59ZRD625 438.3000/430.7000 CC1
LEGM 43.26.15N 005.49.84WIN73CK 12.073km 166°SSE11:00:23ZHelipuerto de La Morgal: LEAS 241000Z 23006KT 200V260 CAVOK 06/02 Q1027 NOSIG=
LEMR 43.25.83N 005.49.60WIN73CK 12.742km 165°SSE11:00:24ZAerodromo de la Morgal: LEAS 241000Z 23006KT 200V260 CAVOK 06/02 Q1027 NOSIG=
EB1TK 43.32.22N 005.42.32WIN73DM 13.043km 92°E11:05:16ZWind 202°/002kn, Böen bis 005kn, Temp 10.56c, Regen 0.0mm, letzte 24h 0.0mm, seit 0h 0.0mm, Baro 1030.0h, Hum: 80%(3EB1TK-13)
LEEL 43.32.98N 005.41.71WIN73DN 13.870km 86°E11:00:25ZHelipuerto de El Musel: LEAS 241000Z 23006KT 200V260 CAVOK 06/02 Q1027 NOSIG=
EA1ABW 43.24.77N 005.47.77WIN73CJ 15.367km 158°SSE11:01:30ZMMDVM MMDVM HS Hat 439.8250/439.8250 CC1
EA1IEJ 43.31.81N 005.40.25WIN73DM 15.863km 94°E11:02:13ZMMDVM MMDVM HS Hat 438.8500/438.8500 CC6
EA1DZR 43.31.47N 005.40.00WIN73DM 16.247km 97°E11:03:20ZMMDVM DVMega 431.1000/431.1000 CC1
ED1ZAE 43.27.99N 005.40.54WIN73DL 17.522km 118°ESE10:55:29ZWIDE3-3 ESAS3-3 IN73DL WWW.EA1URG.ORG(3ED1ZAE-3)
ED1ZAU 43.23.04N 005.52.75WIN73BJ 17.520km 183°S11:00:55ZRD625 438.5000/430.9000 CC1
ED1ZAS 43.27.52N 005.40.17WIN73DL 18.373km 120°ESE11:00:50ZRD985 438.2250/430.6250 CC1
LEHU 43.22.63N 005.49.57WIN73CJ 18.545km 170°S11:00:23ZHelipuerto del HUCA: LEAS 241000Z 23006KT 200V260 CAVOK 06/02 Q1027 NOSIG=
33D00 43.21.63N 005.51.13WIN73BI 20.141km 177°S11:02:31Z33-D-00 Protección Civil REMER / Delegación del Gobierno en Asturias
EB1GEM 43.30.00N 005.36.07WIN73EM 21.919km 102°ESE10:56:10ZWX3in1Plus2.0 U=13.3V,T=??.?C/??.?F(3EB1GEM-3)
EA1L 43.20.37N 005.51.13WIN73BI 22.453km 177°S11:00:25Zea1l@ure.es V=13.5V,T=??.?C
Wind 186°/000kn, Böen bis 002kn, Temp 8.33c, Regen 0.0mm, letzte 24h 0.0mm, seit 0h 0.0mm, Baro 1025.2h, Hum: 88%(2EA1L-13)
EA1HWX 43.19.20N 005.50.74WIN73BH 24.667km 176°S11:03:22ZMMDVM DMO 435.5000/435.5000 CC1
EA1FLQ 43.22.00N 005.36.35WIN73EI 28.654km 133°SE11:02:46ZMMDVM DVMega 439.9750/439.9750 CC1
EA1HJA 43.28.10N 005.30.45WIN73FL 30.109km 106°ESE11:04:27Z IN73FL WX3IN1+ 2.0 - V=14.0V,TX TEMP=41.1C
EA1HJA@URE.ES(2EA1HJA-2)
EA1JAY 43.29.33N 005.26.78WIN73GL 34.417km 100°E11:00:27Z434.525MHz Nodo TETRA DMO(3EA1JAY-4)
EA1JAY(2EA1JAY-2)
EA1HWD 43.28.96N 005.26.30WIN73GL 35.178km 101°E11:02:51Z144.575FM Local frecuency VHF. 434.2500/434.2500 CC1
EA1AQK 43.16.49N 005.35.99WIN73EG 36.634km 144°SE11:01:29ZMMDVM MMDVM HS Hat 439.8500/439.8500 CC1
EB1DGC 43.12.60N 005.45.59WIN73CF 37.839km 167°SSE11:01:17ZMMDVM MMDVM HS Hat 433.4500/433.4500 CC1
EA1JBL 43.12.28N 005.47.42WIN73CE 37.919km 171°S11:02:55ZMMDVM DVMega 435.3000/435.3000 CC1
EA1HWA 43.12.00N 005.47.40WIN73CE 38.456km 171°S11:02:44ZMMDVM MMDVM HS Hat 433.4500/433.4500 CC1
EA1RCG 43.09.45N 005.49.78WIN73CD 42.761km 176°S11:01:52ZGRUPO RADIO GALENA (GRG) 430.4500/430.4500 CC1
LETN 43.20.05N 006.22.69WIN63TI 47.265km 241°WSW11:00:24ZAerodromo de La Curiscada (Tineo): LEAS 241000Z 23006KT 200V260 CAVOK 06/02 Q1027 NOSIG=
EA1JBU 43.30.80N 005.16.20WIN73IM 48.216km 93°E11:00:27ZEA1JBU(3EA1JBU-2)
EA1JBE 43.30.90N 005.16.15WIN73IM 48.284km 93°E11:00:23ZDario(3EA1JBE-7)
EA1JBU(2EA1JBE-13)
MAIN QTH http://qrz.com/db/ea1jbe(2EA1JBE-1)
ED1ZAD 43.07.90N 005.38.52WIN73ED 49.025km 158°SSE11:06:50ZED1ZAD-3 APRS Digi/Igate(3ED1ZAD-3)
EA1GHF 43.17.99N 006.22.79WIN63TH 49.351km 237°WSW11:02:46ZMMDVM MMDVM HS Hat 434.4000/434.4000 CC1

aprs.pl 5.0.011w DL3EL © 2006-2021 [1475021]